sensor_id;sensor_type;location;lat;lon;timestamp;P1;durP1;ratioP1;P2;durP2;ratioP2
22166;SDS011;11249;52.468;13.776;2023-06-22T00:01:19;23.52;;;21.15;;
22166;SDS011;11249;52.468;13.776;2023-06-22T00:03:48;22.35;;;20.08;;
22166;SDS011;11249;52.468;13.776;2023-06-22T00:06:15;24.10;;;21.58;;
22166;SDS011;11249;52.468;13.776;2023-06-22T00:08:42;23.05;;;20.85;;
22166;SDS011;11249;52.468;13.776;2023-06-22T00:11:09;23.92;;;21.23;;
22166;SDS011;11249;52.468;13.776;2023-06-22T00:13:36;25.08;;;22.33;;
22166;SDS011;11249;52.468;13.776;2023-06-22T00:16:03;22.17;;;20.02;;
22166;SDS011;11249;52.468;13.776;2023-06-22T00:18:30;24.88;;;22.48;;
22166;SDS011;11249;52.468;13.776;2023-06-22T00:20:58;23.90;;;21.60;;
22166;SDS011;11249;52.468;13.776;2023-06-22T00:23:25;26.45;;;23.20;;
22166;SDS011;11249;52.468;13.776;2023-06-22T00:25:52;24.05;;;21.75;;
22166;SDS011;11249;52.468;13.776;2023-06-22T00:28:19;24.55;;;22.08;;
22166;SDS011;11249;52.468;13.776;2023-06-22T00:30:46;24.40;;;22.05;;
22166;SDS011;11249;52.468;13.776;2023-06-22T00:33:15;24.15;;;21.75;;
22166;SDS011;11249;52.468;13.776;2023-06-22T00:35:42;25.35;;;22.85;;
22166;SDS011;11249;52.468;13.776;2023-06-22T00:38:09;24.85;;;22.05;;
22166;SDS011;11249;52.468;13.776;2023-06-22T00:40:36;25.02;;;22.33;;
22166;SDS011;11249;52.468;13.776;2023-06-22T00:43:03;25.60;;;21.65;;
22166;SDS011;11249;52.468;13.776;2023-06-22T00:45:31;26.30;;;22.65;;
22166;SDS011;11249;52.468;13.776;2023-06-22T00:47:58;26.38;;;23.70;;
22166;SDS011;11249;52.468;13.776;2023-06-22T00:50:26;25.48;;;22.77;;
22166;SDS011;11249;52.468;13.776;2023-06-22T00:52:56;24.83;;;22.40;;
22166;SDS011;11249;52.468;13.776;2023-06-22T00:55:25;25.83;;;22.88;;
22166;SDS011;11249;52.468;13.776;2023-06-22T00:57:52;23.15;;;20.95;;
22166;SDS011;11249;52.468;13.776;2023-06-22T01:00:22;23.67;;;20.63;;
22166;SDS011;11249;52.468;13.776;2023-06-22T01:02:51;23.45;;;20.65;;
22166;SDS011;11249;52.468;13.776;2023-06-22T01:05:19;25.23;;;22.52;;
22166;SDS011;11249;52.468;13.776;2023-06-22T01:07:54;24.15;;;21.85;;
22166;SDS011;11249;52.468;13.776;2023-06-22T01:10:48;23.52;;;20.90;;
22166;SDS011;11249;52.468;13.776;2023-06-22T01:14:19;23.70;;;21.30;;
22166;SDS011;11249;52.468;13.776;2023-06-22T01:16:24;25.25;;;22.65;;
22166;SDS011;11249;52.468;13.776;2023-06-22T01:18:52;24.17;;;21.60;;
22166;SDS011;11249;52.468;13.776;2023-06-22T01:21:22;24.83;;;22.35;;
22166;SDS011;11249;52.468;13.776;2023-06-22T01:26:41;23.25;;;20.85;;
22166;SDS011;11249;52.468;13.776;2023-06-22T01:29:23;24.63;;;22.17;;
22166;SDS011;11249;52.468;13.776;2023-06-22T01:31:52;25.75;;;23.38;;
22166;SDS011;11249;52.468;13.776;2023-06-22T01:34:21;24.27;;;21.50;;
22166;SDS011;11249;52.468;13.776;2023-06-22T01:36:50;22.52;;;20.23;;
22166;SDS011;11249;52.468;13.776;2023-06-22T01:39:18;23.58;;;20.95;;
22166;SDS011;11249;52.468;13.776;2023-06-22T01:41:47;23.92;;;21.55;;
22166;SDS011;11249;52.468;13.776;2023-06-22T01:44:14;26.15;;;23.52;;
22166;SDS011;11249;52.468;13.776;2023-06-22T01:46:41;23.80;;;20.70;;
22166;SDS011;11249;52.468;13.776;2023-06-22T01:49:08;25.45;;;22.77;;
22166;SDS011;11249;52.468;13.776;2023-06-22T01:51:35;24.35;;;21.88;;
22166;SDS011;11249;52.468;13.776;2023-06-22T01:54:02;24.00;;;21.65;;
22166;SDS011;11249;52.468;13.776;2023-06-22T01:56:31;25.17;;;22.75;;
22166;SDS011;11249;52.468;13.776;2023-06-22T01:59:07;24.80;;;22.17;;
22166;SDS011;11249;52.468;13.776;2023-06-22T02:01:43;25.30;;;22.70;;
22166;SDS011;11249;52.468;13.776;2023-06-22T02:04:16;25.77;;;23.00;;
22166;SDS011;11249;52.468;13.776;2023-06-22T02:06:51;25.23;;;22.63;;
22166;SDS011;11249;52.468;13.776;2023-06-22T02:09:22;26.80;;;24.05;;
22166;SDS011;11249;52.468;13.776;2023-06-22T02:11:51;25.58;;;22.98;;
22166;SDS011;11249;52.468;13.776;2023-06-22T02:14:22;24.63;;;22.17;;
22166;SDS011;11249;52.468;13.776;2023-06-22T02:16:50;25.67;;;23.13;;
22166;SDS011;11249;52.468;13.776;2023-06-22T02:19:22;24.95;;;22.42;;
22166;SDS011;11249;52.468;13.776;2023-06-22T02:21:49;25.30;;;22.58;;
22166;SDS011;11249;52.468;13.776;2023-06-22T02:24:16;25.50;;;22.80;;
22166;SDS011;11249;52.468;13.776;2023-06-22T02:26:43;23.63;;;21.40;;
22166;SDS011;11249;52.468;13.776;2023-06-22T02:29:11;26.90;;;24.25;;
22166;SDS011;11249;52.468;13.776;2023-06-22T02:31:38;24.40;;;22.00;;
22166;SDS011;11249;52.468;13.776;2023-06-22T02:34:05;25.95;;;23.35;;
22166;SDS011;11249;52.468;13.776;2023-06-22T02:36:32;24.52;;;21.92;;
22166;SDS011;11249;52.468;13.776;2023-06-22T02:38:59;28.65;;;25.60;;
22166;SDS011;11249;52.468;13.776;2023-06-22T02:41:27;25.90;;;23.20;;
22166;SDS011;11249;52.468;13.776;2023-06-22T02:43:54;27.83;;;24.83;;
22166;SDS011;11249;52.468;13.776;2023-06-22T02:46:21;26.95;;;24.10;;
22166;SDS011;11249;52.468;13.776;2023-06-22T02:48:48;26.55;;;23.95;;
22166;SDS011;11249;52.468;13.776;2023-06-22T02:51:15;25.20;;;22.70;;
22166;SDS011;11249;52.468;13.776;2023-06-22T02:53:41;26.52;;;23.80;;
22166;SDS011;11249;52.468;13.776;2023-06-22T02:56:11;27.38;;;24.40;;
22166;SDS011;11249;52.468;13.776;2023-06-22T02:58:39;28.10;;;22.60;;
22166;SDS011;11249;52.468;13.776;2023-06-22T03:01:05;26.20;;;23.63;;
22166;SDS011;11249;52.468;13.776;2023-06-22T03:03:32;26.73;;;24.00;;
22166;SDS011;11249;52.468;13.776;2023-06-22T03:05:59;26.02;;;23.42;;
22166;SDS011;11249;52.468;13.776;2023-06-22T03:08:29;28.27;;;23.88;;
22166;SDS011;11249;52.468;13.776;2023-06-22T03:10:56;26.98;;;24.23;;
22166;SDS011;11249;52.468;13.776;2023-06-22T03:13:23;27.13;;;24.15;;
22166;SDS011;11249;52.468;13.776;2023-06-22T03:15:50;26.50;;;23.77;;
22166;SDS011;11249;52.468;13.776;2023-06-22T03:18:17;27.15;;;24.33;;
22166;SDS011;11249;52.468;13.776;2023-06-22T03:20:43;29.27;;;25.98;;
22166;SDS011;11249;52.468;13.776;2023-06-22T03:23:10;25.23;;;22.75;;
22166;SDS011;11249;52.468;13.776;2023-06-22T03:25:37;27.90;;;25.20;;
22166;SDS011;11249;52.468;13.776;2023-06-22T03:28:03;28.42;;;25.63;;
22166;SDS011;11249;52.468;13.776;2023-06-22T03:30:30;27.25;;;24.60;;
22166;SDS011;11249;52.468;13.776;2023-06-22T03:32:57;28.10;;;24.60;;
22166;SDS011;11249;52.468;13.776;2023-06-22T03:35:24;29.13;;;25.95;;
22166;SDS011;11249;52.468;13.776;2023-06-22T03:37:51;26.35;;;23.73;;
22166;SDS011;11249;52.468;13.776;2023-06-22T03:40:17;29.27;;;25.63;;
22166;SDS011;11249;52.468;13.776;2023-06-22T03:42:45;29.83;;;25.50;;
22166;SDS011;11249;52.468;13.776;2023-06-22T03:45:12;27.02;;;24.33;;
22166;SDS011;11249;52.468;13.776;2023-06-22T03:47:38;26.52;;;23.05;;
22166;SDS011;11249;52.468;13.776;2023-06-22T03:50:05;24.83;;;22.35;;
22166;SDS011;11249;52.468;13.776;2023-06-22T03:52:32;26.65;;;23.88;;
22166;SDS011;11249;52.468;13.776;2023-06-22T03:54:59;28.83;;;23.88;;
22166;SDS011;11249;52.468;13.776;2023-06-22T03:57:26;26.38;;;23.77;;
22166;SDS011;11249;52.468;13.776;2023-06-22T03:59:54;27.00;;;23.98;;
22166;SDS011;11249;52.468;13.776;2023-06-22T04:02:22;24.37;;;21.87;;
22166;SDS011;11249;52.468;13.776;2023-06-22T04:04:49;24.75;;;21.65;;
22166;SDS011;11249;52.468;13.776;2023-06-22T04:07:16;33.08;;;23.08;;
22166;SDS011;11249;52.468;13.776;2023-06-22T04:09:44;24.08;;;21.67;;
22166;SDS011;11249;52.468;13.776;2023-06-22T04:12:10;23.70;;;19.95;;
22166;SDS011;11249;52.468;13.776;2023-06-22T04:14:37;23.70;;;20.90;;
22166;SDS011;11249;52.468;13.776;2023-06-22T04:17:04;23.60;;;20.75;;
22166;SDS011;11249;52.468;13.776;2023-06-22T04:19:31;20.48;;;18.25;;
22166;SDS011;11249;52.468;13.776;2023-06-22T04:21:57;22.02;;;19.88;;
22166;SDS011;11249;52.468;13.776;2023-06-22T04:24:24;20.75;;;18.58;;
22166;SDS011;11249;52.468;13.776;2023-06-22T04:26:51;21.92;;;18.55;;
22166;SDS011;11249;52.468;13.776;2023-06-22T04:29:21;18.92;;;16.95;;
22166;SDS011;11249;52.468;13.776;2023-06-22T04:31:54;20.55;;;18.27;;
22166;SDS011;11249;52.468;13.776;2023-06-22T04:34:29;21.58;;;19.35;;
22166;SDS011;11249;52.468;13.776;2023-06-22T04:36:55;20.38;;;18.27;;
22166;SDS011;11249;52.468;13.776;2023-06-22T04:39:22;20.30;;;18.00;;
22166;SDS011;11249;52.468;13.776;2023-06-22T04:41:50;22.20;;;17.25;;
22166;SDS011;11249;52.468;13.776;2023-06-22T04:44:18;17.08;;;15.25;;
22166;SDS011;11249;52.468;13.776;2023-06-22T04:46:55;20.17;;;16.42;;
22166;SDS011;11249;52.468;13.776;2023-06-22T04:49:29;18.45;;;16.58;;
22166;SDS011;11249;52.468;13.776;2023-06-22T04:52:10;18.80;;;14.95;;
22166;SDS011;11249;52.468;13.776;2023-06-22T04:54:41;16.70;;;14.90;;
22166;SDS011;11249;52.468;13.776;2023-06-22T04:57:14;16.45;;;14.75;;
22166;SDS011;11249;52.468;13.776;2023-06-22T04:59:41;18.80;;;15.23;;
22166;SDS011;11249;52.468;13.776;2023-06-22T05:02:08;17.27;;;14.40;;
22166;SDS011;11249;52.468;13.776;2023-06-22T05:04:35;16.25;;;13.38;;
22166;SDS011;11249;52.468;13.776;2023-06-22T05:09:33;22.08;;;14.68;;
22166;SDS011;11249;52.468;13.776;2023-06-22T05:12:00;18.20;;;13.43;;
22166;SDS011;11249;52.468;13.776;2023-06-22T05:14:29;17.50;;;13.98;;
22166;SDS011;11249;52.468;13.776;2023-06-22T05:16:56;15.57;;;13.93;;
22166;SDS011;11249;52.468;13.776;2023-06-22T05:19:25;18.92;;;14.40;;
22166;SDS011;11249;52.468;13.776;2023-06-22T05:21:57;15.32;;;12.75;;
22166;SDS011;11249;52.468;13.776;2023-06-22T05:24:24;17.58;;;14.43;;
22166;SDS011;11249;52.468;13.776;2023-06-22T05:26:51;12.93;;;11.70;;
22166;SDS011;11249;52.468;13.776;2023-06-22T05:29:17;13.18;;;11.70;;
22166;SDS011;11249;52.468;13.776;2023-06-22T05:31:44;11.23;;;9.73;;
22166;SDS011;11249;52.468;13.776;2023-06-22T05:34:11;14.10;;;10.38;;
22166;SDS011;11249;52.468;13.776;2023-06-22T05:36:38;13.07;;;10.98;;
22166;SDS011;11249;52.468;13.776;2023-06-22T05:39:11;12.05;;;10.65;;
22166;SDS011;11249;52.468;13.776;2023-06-22T05:41:40;14.48;;;9.85;;
22166;SDS011;11249;52.468;13.776;2023-06-22T05:44:06;12.15;;;9.45;;
22166;SDS011;11249;52.468;13.776;2023-06-22T05:46:33;9.82;;;8.82;;
22166;SDS011;11249;52.468;13.776;2023-06-22T05:49:00;8.48;;;7.47;;
22166;SDS011;11249;52.468;13.776;2023-06-22T05:51:27;10.25;;;8.48;;
22166;SDS011;11249;52.468;13.776;2023-06-22T05:53:53;11.85;;;7.68;;
22166;SDS011;11249;52.468;13.776;2023-06-22T05:56:20;9.48;;;7.25;;
22166;SDS011;11249;52.468;13.776;2023-06-22T05:58:47;9.57;;;7.13;;
22166;SDS011;11249;52.468;13.776;2023-06-22T06:01:14;7.47;;;6.70;;
22166;SDS011;11249;52.468;13.776;2023-06-22T06:03:41;8.35;;;7.25;;
22166;SDS011;11249;52.468;13.776;2023-06-22T06:06:08;7.65;;;6.95;;
22166;SDS011;11249;52.468;13.776;2023-06-22T06:08:37;9.20;;;7.20;;
22166;SDS011;11249;52.468;13.776;2023-06-22T06:11:04;7.82;;;6.55;;
22166;SDS011;11249;52.468;13.776;2023-06-22T06:13:31;7.75;;;6.85;;
22166;SDS011;11249;52.468;13.776;2023-06-22T06:15:58;7.82;;;6.15;;
22166;SDS011;11249;52.468;13.776;2023-06-22T06:18:25;8.23;;;5.85;;
22166;SDS011;11249;52.468;13.776;2023-06-22T06:20:52;7.28;;;5.25;;
22166;SDS011;11249;52.468;13.776;2023-06-22T06:23:19;6.82;;;5.15;;
22166;SDS011;11249;52.468;13.776;2023-06-22T06:25:45;6.07;;;5.47;;
22166;SDS011;11249;52.468;13.776;2023-06-22T06:28:12;6.43;;;5.25;;
22166;SDS011;11249;52.468;13.776;2023-06-22T06:30:39;6.95;;;4.65;;
22166;SDS011;11249;52.468;13.776;2023-06-22T06:33:07;6.50;;;5.20;;
22166;SDS011;11249;52.468;13.776;2023-06-22T06:35:35;8.32;;;5.18;;
22166;SDS011;11249;52.468;13.776;2023-06-22T06:38:02;6.13;;;5.55;;
22166;SDS011;11249;52.468;13.776;2023-06-22T06:40:29;7.15;;;5.18;;
22166;SDS011;11249;52.468;13.776;2023-06-22T06:42:56;8.63;;;5.65;;
22166;SDS011;11249;52.468;13.776;2023-06-22T06:45:23;6.40;;;5.75;;
22166;SDS011;11249;52.468;13.776;2023-06-22T06:47:51;6.13;;;5.50;;
22166;SDS011;11249;52.468;13.776;2023-06-22T06:50:19;5.65;;;5.03;;
22166;SDS011;11249;52.468;13.776;2023-06-22T06:52:46;6.93;;;5.15;;
22166;SDS011;11249;52.468;13.776;2023-06-22T06:55:13;7.18;;;5.13;;
22166;SDS011;11249;52.468;13.776;2023-06-22T06:57:41;8.30;;;5.00;;
22166;SDS011;11249;52.468;13.776;2023-06-22T07:00:09;8.23;;;5.15;;
22166;SDS011;11249;52.468;13.776;2023-06-22T07:02:40;5.20;;;4.70;;
22166;SDS011;11249;52.468;13.776;2023-06-22T07:05:08;5.38;;;4.70;;
22166;SDS011;11249;52.468;13.776;2023-06-22T07:07:36;6.47;;;4.40;;
22166;SDS011;11249;52.468;13.776;2023-06-22T07:10:04;4.85;;;4.40;;
22166;SDS011;11249;52.468;13.776;2023-06-22T07:12:32;6.30;;;5.00;;
22166;SDS011;11249;52.468;13.776;2023-06-22T07:15:03;6.40;;;4.63;;
22166;SDS011;11249;52.468;13.776;2023-06-22T07:17:31;5.18;;;4.07;;
22166;SDS011;11249;52.468;13.776;2023-06-22T07:19:58;6.85;;;4.55;;
22166;SDS011;11249;52.468;13.776;2023-06-22T07:22:25;6.00;;;4.20;;
22166;SDS011;11249;52.468;13.776;2023-06-22T07:24:51;6.28;;;3.92;;
22166;SDS011;11249;52.468;13.776;2023-06-22T07:27:18;5.18;;;4.57;;
22166;SDS011;11249;52.468;13.776;2023-06-22T07:29:46;4.88;;;4.38;;
22166;SDS011;11249;52.468;13.776;2023-06-22T07:32:13;4.85;;;4.30;;
22166;SDS011;11249;52.468;13.776;2023-06-22T07:34:39;4.38;;;3.60;;
22166;SDS011;11249;52.468;13.776;2023-06-22T07:37:07;6.65;;;4.32;;
22166;SDS011;11249;52.468;13.776;2023-06-22T07:39:34;7.93;;;4.00;;
22166;SDS011;11249;52.468;13.776;2023-06-22T07:42:01;8.05;;;3.72;;
22166;SDS011;11249;52.468;13.776;2023-06-22T07:44:27;4.95;;;4.03;;
22166;SDS011;11249;52.468;13.776;2023-06-22T07:46:54;5.78;;;4.28;;
22166;SDS011;11249;52.468;13.776;2023-06-22T07:49:21;5.07;;;4.00;;
22166;SDS011;11249;52.468;13.776;2023-06-22T07:51:47;6.22;;;4.00;;
22166;SDS011;11249;52.468;13.776;2023-06-22T07:54:14;5.82;;;3.47;;
22166;SDS011;11249;52.468;13.776;2023-06-22T07:56:42;4.80;;;3.83;;
22166;SDS011;11249;52.468;13.776;2023-06-22T07:59:09;6.22;;;4.35;;
22166;SDS011;11249;52.468;13.776;2023-06-22T08:01:35;3.80;;;3.47;;
22166;SDS011;11249;52.468;13.776;2023-06-22T08:04:02;4.57;;;3.50;;
22166;SDS011;11249;52.468;13.776;2023-06-22T08:06:30;6.70;;;3.72;;
22166;SDS011;11249;52.468;13.776;2023-06-22T08:08:57;3.97;;;3.10;;
22166;SDS011;11249;52.468;13.776;2023-06-22T08:11:25;5.30;;;3.45;;
22166;SDS011;11249;52.468;13.776;2023-06-22T08:13:52;6.63;;;3.63;;
22166;SDS011;11249;52.468;13.776;2023-06-22T08:16:21;4.00;;;3.60;;
22166;SDS011;11249;52.468;13.776;2023-06-22T08:18:48;4.70;;;3.47;;
22166;SDS011;11249;52.468;13.776;2023-06-22T08:21:15;4.32;;;3.50;;
22166;SDS011;11249;52.468;13.776;2023-06-22T08:23:43;5.47;;;3.70;;
22166;SDS011;11249;52.468;13.776;2023-06-22T08:26:09;5.85;;;3.63;;
22166;SDS011;11249;52.468;13.776;2023-06-22T08:28:36;5.63;;;3.80;;
22166;SDS011;11249;52.468;13.776;2023-06-22T08:31:03;3.95;;;3.28;;
22166;SDS011;11249;52.468;13.776;2023-06-22T08:33:30;4.82;;;3.63;;
22166;SDS011;11249;52.468;13.776;2023-06-22T08:35:57;4.05;;;3.40;;
22166;SDS011;11249;52.468;13.776;2023-06-22T08:38:25;4.90;;;3.67;;
22166;SDS011;11249;52.468;13.776;2023-06-22T08:40:51;4.05;;;3.50;;
22166;SDS011;11249;52.468;13.776;2023-06-22T08:43:18;5.38;;;3.78;;
22166;SDS011;11249;52.468;13.776;2023-06-22T08:45:45;3.97;;;3.50;;
22166;SDS011;11249;52.468;13.776;2023-06-22T08:48:12;3.97;;;3.33;;
22166;SDS011;11249;52.468;13.776;2023-06-22T08:50:38;4.05;;;3.70;;
22166;SDS011;11249;52.468;13.776;2023-06-22T08:53:07;4.20;;;3.80;;
22166;SDS011;11249;52.468;13.776;2023-06-22T08:55:33;4.30;;;3.67;;
22166;SDS011;11249;52.468;13.776;2023-06-22T08:58:00;5.35;;;3.50;;
22166;SDS011;11249;52.468;13.776;2023-06-22T09:00:27;4.97;;;3.97;;
22166;SDS011;11249;52.468;13.776;2023-06-22T09:02:55;9.20;;;3.58;;
22166;SDS011;11249;52.468;13.776;2023-06-22T09:07:56;4.28;;;3.28;;
22166;SDS011;11249;52.468;13.776;2023-06-22T09:10:25;5.90;;;3.33;;
22166;SDS011;11249;52.468;13.776;2023-06-22T09:12:52;4.75;;;2.92;;
22166;SDS011;11249;52.468;13.776;2023-06-22T09:15:19;4.75;;;3.35;;
22166;SDS011;11249;52.468;13.776;2023-06-22T09:17:46;3.30;;;3.00;;
22166;SDS011;11249;52.468;13.776;2023-06-22T09:20:13;5.88;;;3.45;;
22166;SDS011;11249;52.468;13.776;2023-06-22T09:22:40;4.43;;;3.30;;
22166;SDS011;11249;52.468;13.776;2023-06-22T09:25:07;5.25;;;3.20;;
22166;SDS011;11249;52.468;13.776;2023-06-22T09:27:34;4.22;;;3.10;;
22166;SDS011;11249;52.468;13.776;2023-06-22T09:30:01;2.95;;;2.65;;
22166;SDS011;11249;52.468;13.776;2023-06-22T09:32:29;3.47;;;2.90;;
22166;SDS011;11249;52.468;13.776;2023-06-22T09:34:56;5.32;;;2.67;;
22166;SDS011;11249;52.468;13.776;2023-06-22T09:37:23;6.55;;;3.10;;
22166;SDS011;11249;52.468;13.776;2023-06-22T09:39:50;3.50;;;3.17;;
22166;SDS011;11249;52.468;13.776;2023-06-22T09:42:16;4.65;;;3.30;;
22166;SDS011;11249;52.468;13.776;2023-06-22T09:44:43;3.30;;;2.92;;
22166;SDS011;11249;52.468;13.776;2023-06-22T09:47:10;6.32;;;3.08;;
22166;SDS011;11249;52.468;13.776;2023-06-22T09:49:36;4.28;;;2.95;;
22166;SDS011;11249;52.468;13.776;2023-06-22T09:52:13;4.75;;;2.70;;
22166;SDS011;11249;52.468;13.776;2023-06-22T09:54:40;3.22;;;2.67;;
22166;SDS011;11249;52.468;13.776;2023-06-22T09:57:07;4.55;;;2.97;;
22166;SDS011;11249;52.468;13.776;2023-06-22T09:59:34;3.53;;;3.15;;
22166;SDS011;11249;52.468;13.776;2023-06-22T10:02:00;4.15;;;3.53;;
22166;SDS011;11249;52.468;13.776;2023-06-22T10:04:27;3.85;;;2.83;;
22166;SDS011;11249;52.468;13.776;2023-06-22T10:06:55;4.22;;;2.80;;
22166;SDS011;11249;52.468;13.776;2023-06-22T10:09:22;3.22;;;2.92;;
22166;SDS011;11249;52.468;13.776;2023-06-22T10:11:48;3.58;;;3.08;;
22166;SDS011;11249;52.468;13.776;2023-06-22T10:14:15;4.47;;;2.67;;
22166;SDS011;11249;52.468;13.776;2023-06-22T10:16:43;2.85;;;2.65;;
22166;SDS011;11249;52.468;13.776;2023-06-22T10:19:10;3.55;;;3.17;;
22166;SDS011;11249;52.468;13.776;2023-06-22T10:21:38;3.38;;;2.70;;
22166;SDS011;11249;52.468;13.776;2023-06-22T10:24:04;2.85;;;2.53;;
22166;SDS011;11249;52.468;13.776;2023-06-22T10:26:35;3.40;;;3.10;;
22166;SDS011;11249;52.468;13.776;2023-06-22T10:29:02;3.92;;;2.83;;
22166;SDS011;11249;52.468;13.776;2023-06-22T10:31:32;2.50;;;2.30;;
22166;SDS011;11249;52.468;13.776;2023-06-22T10:33:59;4.18;;;3.17;;
22166;SDS011;11249;52.468;13.776;2023-06-22T10:36:26;3.10;;;2.85;;
22166;SDS011;11249;52.468;13.776;2023-06-22T10:38:53;3.92;;;3.30;;
22166;SDS011;11249;52.468;13.776;2023-06-22T10:41:21;3.40;;;2.97;;
22166;SDS011;11249;52.468;13.776;2023-06-22T10:43:48;7.70;;;3.13;;
22166;SDS011;11249;52.468;13.776;2023-06-22T10:46:15;3.53;;;2.70;;
22166;SDS011;11249;52.468;13.776;2023-06-22T10:48:41;2.97;;;2.75;;
22166;SDS011;11249;52.468;13.776;2023-06-22T10:51:08;6.25;;;3.28;;
22166;SDS011;11249;52.468;13.776;2023-06-22T10:53:35;3.67;;;2.90;;
22166;SDS011;11249;52.468;13.776;2023-06-22T10:56:01;6.35;;;2.97;;
22166;SDS011;11249;52.468;13.776;2023-06-22T10:58:28;3.95;;;2.90;;
22166;SDS011;11249;52.468;13.776;2023-06-22T11:00:55;4.93;;;3.00;;
22166;SDS011;11249;52.468;13.776;2023-06-22T11:03:22;3.50;;;3.20;;
22166;SDS011;11249;52.468;13.776;2023-06-22T11:05:49;4.60;;;3.00;;
22166;SDS011;11249;52.468;13.776;2023-06-22T11:08:16;6.22;;;3.38;;
22166;SDS011;11249;52.468;13.776;2023-06-22T11:10:43;3.83;;;3.28;;
22166;SDS011;11249;52.468;13.776;2023-06-22T11:13:10;3.53;;;3.13;;
22166;SDS011;11249;52.468;13.776;2023-06-22T11:15:38;3.58;;;3.25;;
22166;SDS011;11249;52.468;13.776;2023-06-22T11:18:05;4.22;;;2.75;;
22166;SDS011;11249;52.468;13.776;2023-06-22T11:20:33;4.43;;;3.22;;
22166;SDS011;11249;52.468;13.776;2023-06-22T11:23:05;3.95;;;3.17;;
22166;SDS011;11249;52.468;13.776;2023-06-22T11:25:34;3.30;;;2.78;;
22166;SDS011;11249;52.468;13.776;2023-06-22T11:28:04;3.25;;;2.97;;
22166;SDS011;11249;52.468;13.776;2023-06-22T11:30:31;3.65;;;3.35;;
22166;SDS011;11249;52.468;13.776;2023-06-22T11:32:58;3.55;;;3.20;;
22166;SDS011;11249;52.468;13.776;2023-06-22T11:35:25;2.92;;;2.60;;
22166;SDS011;11249;52.468;13.776;2023-06-22T11:37:52;3.00;;;2.78;;
22166;SDS011;11249;52.468;13.776;2023-06-22T11:40:19;4.80;;;2.83;;
22166;SDS011;11249;52.468;13.776;2023-06-22T11:42:46;3.35;;;3.05;;
22166;SDS011;11249;52.468;13.776;2023-06-22T11:45:12;3.58;;;3.17;;
22166;SDS011;11249;52.468;13.776;2023-06-22T11:47:39;5.05;;;3.22;;
22166;SDS011;11249;52.468;13.776;2023-06-22T11:50:06;4.13;;;3.47;;
22166;SDS011;11249;52.468;13.776;2023-06-22T11:52:33;3.65;;;3.20;;
22166;SDS011;11249;52.468;13.776;2023-06-22T11:55:02;4.88;;;3.55;;
22166;SDS011;11249;52.468;13.776;2023-06-22T11:57:35;4.50;;;3.17;;
22166;SDS011;11249;52.468;13.776;2023-06-22T12:00:05;3.28;;;2.90;;
22166;SDS011;11249;52.468;13.776;2023-06-22T12:02:42;4.25;;;3.35;;
22166;SDS011;11249;52.468;13.776;2023-06-22T12:05:08;3.67;;;2.88;;
22166;SDS011;11249;52.468;13.776;2023-06-22T12:07:35;5.68;;;3.42;;
22166;SDS011;11249;52.468;13.776;2023-06-22T12:10:02;3.60;;;3.30;;
22166;SDS011;11249;52.468;13.776;2023-06-22T12:12:29;3.97;;;3.35;;
22166;SDS011;11249;52.468;13.776;2023-06-22T12:14:56;5.93;;;3.20;;
22166;SDS011;11249;52.468;13.776;2023-06-22T12:17:23;4.00;;;3.70;;
22166;SDS011;11249;52.468;13.776;2023-06-22T12:19:50;3.92;;;3.55;;
22166;SDS011;11249;52.468;13.776;2023-06-22T12:22:16;4.25;;;3.63;;
22166;SDS011;11249;52.468;13.776;2023-06-22T12:24:43;4.68;;;3.60;;
22166;SDS011;11249;52.468;13.776;2023-06-22T12:27:10;3.85;;;3.38;;
22166;SDS011;11249;52.468;13.776;2023-06-22T12:29:36;5.18;;;3.72;;
22166;SDS011;11249;52.468;13.776;2023-06-22T12:32:03;3.97;;;3.67;;
22166;SDS011;11249;52.468;13.776;2023-06-22T12:34:30;4.78;;;3.50;;
22166;SDS011;11249;52.468;13.776;2023-06-22T12:36:57;3.53;;;3.17;;
22166;SDS011;11249;52.468;13.776;2023-06-22T12:39:24;4.07;;;3.67;;
22166;SDS011;11249;52.468;13.776;2023-06-22T12:41:50;5.32;;;3.40;;
22166;SDS011;11249;52.468;13.776;2023-06-22T12:44:17;4.03;;;3.72;;
22166;SDS011;11249;52.468;13.776;2023-06-22T12:46:44;4.65;;;3.63;;
22166;SDS011;11249;52.468;13.776;2023-06-22T12:49:10;3.30;;;3.00;;
22166;SDS011;11249;52.468;13.776;2023-06-22T12:51:40;6.38;;;3.78;;
22166;SDS011;11249;52.468;13.776;2023-06-22T12:54:08;3.90;;;3.60;;
22166;SDS011;11249;52.468;13.776;2023-06-22T12:56:36;3.67;;;3.30;;
22166;SDS011;11249;52.468;13.776;2023-06-22T12:59:04;4.13;;;3.75;;
22166;SDS011;11249;52.468;13.776;2023-06-22T13:01:31;4.63;;;3.55;;
22166;SDS011;11249;52.468;13.776;2023-06-22T13:03:58;4.15;;;3.78;;
22166;SDS011;11249;52.468;13.776;2023-06-22T13:06:25;4.65;;;3.38;;
22166;SDS011;11249;52.468;13.776;2023-06-22T13:08:52;5.65;;;3.53;;
22166;SDS011;11249;52.468;13.776;2023-06-22T13:13:48;3.70;;;3.30;;
22166;SDS011;11249;52.468;13.776;2023-06-22T13:16:15;3.75;;;3.20;;
22166;SDS011;11249;52.468;13.776;2023-06-22T13:18:41;3.78;;;3.15;;
22166;SDS011;11249;52.468;13.776;2023-06-22T13:21:08;4.72;;;3.38;;
22166;SDS011;11249;52.468;13.776;2023-06-22T13:23:35;3.88;;;3.50;;
22166;SDS011;11249;52.468;13.776;2023-06-22T13:26:01;5.95;;;3.67;;
22166;SDS011;11249;52.468;13.776;2023-06-22T13:28:29;4.00;;;3.60;;
22166;SDS011;11249;52.468;13.776;2023-06-22T13:30:56;4.78;;;3.83;;
22166;SDS011;11249;52.468;13.776;2023-06-22T13:33:23;3.75;;;3.35;;
22166;SDS011;11249;52.468;13.776;2023-06-22T13:35:50;4.00;;;3.55;;
22166;SDS011;11249;52.468;13.776;2023-06-22T13:38:17;4.28;;;3.88;;
22166;SDS011;11249;52.468;13.776;2023-06-22T13:40:44;4.55;;;3.90;;
22166;SDS011;11249;52.468;13.776;2023-06-22T13:43:10;4.95;;;3.90;;
22166;SDS011;11249;52.468;13.776;2023-06-22T13:45:37;3.75;;;3.45;;
22166;SDS011;11249;52.468;13.776;2023-06-22T13:48:04;4.97;;;4.07;;
22166;SDS011;11249;52.468;13.776;2023-06-22T13:50:31;4.25;;;3.83;;
22166;SDS011;11249;52.468;13.776;2023-06-22T13:52:58;5.90;;;3.75;;
22166;SDS011;11249;52.468;13.776;2023-06-22T13:55:24;4.70;;;4.30;;
22166;SDS011;11249;52.468;13.776;2023-06-22T13:57:52;6.50;;;4.07;;
22166;SDS011;11249;52.468;13.776;2023-06-22T14:00:19;5.38;;;3.85;;
22166;SDS011;11249;52.468;13.776;2023-06-22T14:02:46;5.90;;;3.90;;
22166;SDS011;11249;52.468;13.776;2023-06-22T14:05:13;4.40;;;4.00;;
22166;SDS011;11249;52.468;13.776;2023-06-22T14:07:40;5.13;;;4.18;;
22166;SDS011;11249;52.468;13.776;2023-06-22T14:10:07;4.18;;;3.83;;
22166;SDS011;11249;52.468;13.776;2023-06-22T14:12:34;4.45;;;3.50;;
22166;SDS011;11249;52.468;13.776;2023-06-22T14:15:01;4.38;;;3.90;;
22166;SDS011;11249;52.468;13.776;2023-06-22T14:17:27;5.07;;;4.03;;
22166;SDS011;11249;52.468;13.776;2023-06-22T14:19:54;4.88;;;4.13;;
22166;SDS011;11249;52.468;13.776;2023-06-22T14:22:22;4.32;;;3.92;;
22166;SDS011;11249;52.468;13.776;2023-06-22T14:24:48;4.25;;;3.85;;
22166;SDS011;11249;52.468;13.776;2023-06-22T14:27:15;4.25;;;3.95;;
22166;SDS011;11249;52.468;13.776;2023-06-22T14:29:42;4.38;;;3.97;;
22166;SDS011;11249;52.468;13.776;2023-06-22T14:32:09;4.20;;;3.80;;
22166;SDS011;11249;52.468;13.776;2023-06-22T14:34:36;4.78;;;4.35;;
22166;SDS011;11249;52.468;13.776;2023-06-22T14:37:06;4.18;;;3.78;;